ENBR/BGO METAR and TAF weather

Enter ICAO airport designator
Station Type Date Time Source
ENBR METAR 2018/01/19 22:50 UTC NOAA

ENBR 192250Z 14009KT 9999 VCSH FEW015 SCT020 BKN030 02/M01 Q0997 RMK WIND 1200FT 13021KT


Station Type Date Time Source
ENBR Decoded METAR 2018/01/19 22:50 UTC NOAA

Bergen / Flesland, Norway (ENBR) 60-17N 005-14E 50M
Jan 19, 2018 - 05:50 PM EST / 2018.01.19 2250 UTC
Wind: from the SE (140 degrees) at 10 MPH (9 KT):0
Visibility: greater than 7 mile(s):0
Sky conditions: mostly cloudy
Weather: showers in the vicinity
Temperature: 35 F (2 C)
Windchill: 26 F (-3 C):1
Dew Point: 30 F (-1 C)
Relative Humidity: 80%
Pressure (altimeter): 29.44 in. Hg (0997 hPa)
ob: ENBR 192250Z 14009KT 9999 VCSH FEW015 SCT020 BKN030 02/M01 Q0997 RMK WIND 1200FT 13021KT
cycle: 23

Station Type Date Time Source
ENBR TAF 2018/01/19 18:57 UTC NOAA

TAF ENBR 191700Z 1918/2018 13006KT 9999 -SHSN FEW010TCU BKN020
TEMPO 1918/2003 16016KT 1200 SHSNGS VV009 PROB30
TEMPO 1918/2003 TSGS BKN005 SCT012CB


Example: see airport list